Live from Altenrhein
LIVE
LSZR 221820Z AUTO 18002KT CAVOK 18/15 Q1019

People´s C-Office:

T: +41 (0)71 858 51 65

E: c-office@peoples.ch

People´s Business Airport St.Gallen-Altenrhein

Flughafenstrasse 11

9423 Altenrhein

Switzerland

LSZR / ACH
 

P: +41 71 858 5165

E: groundservices@peoples.ch

www.peoples.ch

Instrumental Flights (IFR)

All times are local. Special allowances upon request.

Mon – Fri 06:30 am – 12:00 pm 13:30 pm – 21:00 pm
Sat 07:30 am – 12:00 pm 13:30 pm – 20:00 pm
Sun 10:00 am – 12:00 pm 13:30 pm – 20:00 pm

Visual Flights (VFR)

All times are local. No special allowances possible.

Mon – Fri 07:00 am – 12:00 Uhr 13:30 pm – 20:00 pm
Sat 08:00 am – 12:00 Uhr 13:30 pm– 20:00 pm
Sun 10:00 am – 12:00 Uhr 13:30 pm – 20:00 pm